Time;durP1;ratioP1;P1;durP2;ratioP2;P2;SDS_P1;SDS_P2;PMS_P1;PMS_P2;Temp;Humidity;BMP_temperature;BMP_pressure;BME280_temperature;BME280_humidity;BME280_pressure;Samples;Min_cycle;Max_cycle;Signal;HPM_P1;HPM_P2
2021/08/06 00:02:21;;;;;;;;;;;;;;;26.18;70.03;100473.25;4971732;28;1084;-68
2021/08/06 00:04:48;;;;;;;;;;;;;;;26.17;68.79;100467.09;4971377;28;1272;-66
2021/08/06 00:07:14;;;;;;;;;;;;;;;26.18;70.32;100474.09;4953578;28;1989;-68
2021/08/06 00:09:41;;;;;;;;;;;;;;;26.14;70.13;100471.84;4971338;28;1304;-68
2021/08/06 00:12:08;;;;;;;;;;;;;;;26.09;70.44;100466.91;4971255;28;1572;-67
2021/08/06 00:14:35;;;;;;;;;;;;;;;26.14;69.13;100459.34;4953778;28;1364;-67
2021/08/06 00:17:02;;;;;;;;;;;;;;;26.15;68.92;100458.38;4971416;28;1053;-67
2021/08/06 00:19:29;;;;;;;;;;;;;;;26.16;69.31;100454.72;4971212;28;1269;-67
2021/08/06 00:21:55;;;;;;;;;;;;;;;26.16;69.09;100461.91;4971254;28;855;-68
2021/08/06 00:24:22;;;;;;;;;;;;;;;26.12;69.68;100458.63;4971342;28;1266;-69
2021/08/06 00:26:49;;;;;;;;;;;;;;;26.11;69.05;100458.78;4971101;28;1914;-68
2021/08/06 00:29:15;;;;;;;;;;;;;;;26.05;69.59;100452.19;4971071;28;1103;-68
2021/08/06 00:31:42;;;;;;;;;;;;;;;26.03;69.57;100454.13;4971270;28;1308;-66
2021/08/06 00:34:09;;;;;;;;;;;;;;;26.02;68.98;100447.13;4970944;28;1115;-67
2021/08/06 00:36:35;;;;;;;;;;;;;;;26.05;69.05;100446.84;4971030;28;1301;-67
2021/08/06 00:39:03;;;;;;;;;;;;;;;26.07;68.87;100450.22;4970731;28;1058;-67
2021/08/06 00:41:29;;;;;;;;;;;;;;;26.07;69.81;100434.19;4970998;28;1313;-64
2021/08/06 00:43:56;;;;;;;;;;;;;;;26.03;69.02;100427.44;4971181;28;794;-67
2021/08/06 00:46:23;;;;;;;;;;;;;;;26.01;69.52;100426.75;4971204;28;1906;-68
2021/08/06 00:48:50;;;;;;;;;;;;;;;26.00;69.44;100438.41;4953473;28;831;-66
2021/08/06 00:51:17;;;;;;;;;;;;;;;26.05;68.78;100426.31;4971060;28;1366;-67
2021/08/06 00:53:44;;;;;;;;;;;;;;;26.00;69.08;100423.25;4937377;28;1108;-66
2021/08/06 00:56:11;;;;;;;;;;;;;;;26.01;69.17;100429.44;4970852;28;1858;-66
2021/08/06 00:58:38;;;;;;;;;;;;;;;26.01;69.11;100430.28;4970994;28;764;-67
2021/08/06 01:01:05;;;;;;;;;;;;;;;25.97;69.45;100428.88;4970379;28;1253;-67
2021/08/06 01:03:37;;;;;;;;;;;;;;;25.99;69.27;100432.22;4970370;28;784;-68
2021/08/06 01:06:10;;;;;;;;;;;;;;;25.99;69.57;100442.09;4970282;28;1265;-67
2021/08/06 01:08:47;;;;;;;;;;;;;;;26.00;68.93;100425.06;4970470;28;1922;-67
2021/08/06 01:11:14;;;;;;;;;;;;;;;25.98;68.90;100421.69;4952950;28;1403;-68
2021/08/06 01:13:43;;;;;;;;;;;;;;;25.96;69.54;100419.16;4970326;28;763;-67
2021/08/06 01:16:11;;;;;;;;;;;;;;;26.00;69.41;100417.91;4953137;28;1349;-67
2021/08/06 01:18:41;;;;;;;;;;;;;;;25.99;69.70;100412.72;4964635;28;1555;-67
2021/08/06 01:21:12;;;;;;;;;;;;;;;26.02;68.94;100420.44;4959044;28;1280;-65
2021/08/06 01:23:39;;;;;;;;;;;;;;;25.98;69.21;100408.34;4933838;29;1692;-67
2021/08/06 01:26:13;;;;;;;;;;;;;;;25.96;69.08;100405.00;4951200;29;1356;-67
2021/08/06 01:28:41;;;;;;;;;;;;;;;25.96;69.95;100405.81;4950766;29;1971;-68
2021/08/06 01:31:09;;;;;;;;;;;;;;;26.00;69.51;100401.03;4951048;29;1427;-67
2021/08/06 01:33:35;;;;;;;;;;;;;;;25.95;69.54;100404.16;4951113;29;784;-68
2021/08/06 01:36:02;;;;;;;;;;;;;;;25.96;69.61;100399.66;4933321;29;1349;-68
2021/08/06 01:38:29;;;;;;;;;;;;;;;25.93;70.22;100408.78;4950854;29;769;-68
2021/08/06 01:41:05;;;;;;;;;;;;;;;25.93;70.21;100406.09;4950894;28;1300;-67
2021/08/06 01:43:37;;;;;;;;;;;;;;;25.94;70.06;100398.94;4933810;29;780;-68
2021/08/06 01:46:18;;;;;;;;;;;;;;;25.95;70.24;100390.81;4933454;29;1293;-67
2021/08/06 01:48:47;;;;;;;;;;;;;;;25.95;70.30;100395.31;4950406;28;1906;-67
2021/08/06 01:51:14;;;;;;;;;;;;;;;25.94;69.75;100390.94;4950539;29;1273;-68
2021/08/06 01:53:44;;;;;;;;;;;;;;;25.97;70.31;100391.50;4950146;28;1085;-67
2021/08/06 01:56:16;;;;;;;;;;;;;;;25.99;70.29;100392.19;4950714;29;1294;-67
2021/08/06 01:58:43;;;;;;;;;;;;;;;25.96;69.87;100395.16;4950467;29;876;-67
2021/08/06 02:01:12;;;;;;;;;;;;;;;25.92;70.47;100388.44;4950364;29;1229;-67
2021/08/06 02:03:40;;;;;;;;;;;;;;;25.96;70.52;100389.00;4950672;28;748;-66
2021/08/06 02:06:08;;;;;;;;;;;;;;;25.95;69.89;100384.63;4949769;29;1351;-67
2021/08/06 02:08:36;;;;;;;;;;;;;;;25.97;70.02;100391.50;4950012;29;1910;-66
2021/08/06 02:11:03;;;;;;;;;;;;;;;25.97;70.04;100385.31;4949985;29;1547;-66
2021/08/06 02:13:30;;;;;;;;;;;;;;;25.93;70.45;100381.28;4950066;28;1112;-67
2021/08/06 02:15:57;;;;;;;;;;;;;;;25.94;70.03;100380.25;4950407;28;1401;-67
2021/08/06 02:18:24;;;;;;;;;;;;;;;25.94;70.39;100381.09;4949783;29;1324;-68
2021/08/06 02:20:52;;;;;;;;;;;;;;;25.95;70.13;100373.94;4950239;29;1261;-66
2021/08/06 02:23:19;;;;;;;;;;;;;;;25.94;69.87;100378.44;4949957;28;1129;-66
2021/08/06 02:25:46;;;;;;;;;;;;;;;25.93;70.13;100370.59;4950345;29;1345;-67
2021/08/06 02:28:13;;;;;;;;;;;;;;;25.94;69.87;100375.78;4949937;28;1907;-67
2021/08/06 02:30:41;;;;;;;;;;;;;;;25.88;69.79;100372.81;4949982;29;1367;-67
2021/08/06 02:33:08;;;;;;;;;;;;;;;25.90;69.95;100374.38;4950078;29;1026;-67
2021/08/06 02:35:34;;;;;;;;;;;;;;;25.89;70.35;100371.84;4932628;29;1237;-67
2021/08/06 02:38:01;;;;;;;;;;;;;;;25.94;69.76;100374.94;4950393;29;923;-67
2021/08/06 02:40:28;;;;;;;;;;;;;;;25.91;69.84;100370.72;4949841;28;1295;-67
2021/08/06 02:42:54;;;;;;;;;;;;;;;25.90;70.05;100376.22;4950035;28;1191;-66
2021/08/06 02:45:21;;;;;;;;;;;;;;;25.93;69.40;100378.59;4949929;29;1269;-67
2021/08/06 02:47:48;;;;;;;;;;;;;;;25.91;70.14;100370.72;4949880;29;1911;-68
2021/08/06 02:50:15;;;;;;;;;;;;;;;25.92;69.88;100376.91;4932115;29;1372;-68
2021/08/06 02:52:42;;;;;;;;;;;;;;;25.97;69.76;100374.63;4949902;28;942;-67
2021/08/06 02:55:09;;;;;;;;;;;;;;;25.96;70.05;100379.13;4949623;28;1265;-68
2021/08/06 02:57:35;;;;;;;;;;;;;;;25.92;69.53;100372.41;4949696;29;792;-68
2021/08/06 03:00:03;;;;;;;;;;;;;;;25.93;69.62;100382.09;4950029;28;1360;-68
2021/08/06 03:02:29;;;;;;;;;;;;;;;25.94;69.55;100385.59;4920023;29;1704;-69
2021/08/06 03:04:56;;;;;;;;;;;;;;;25.90;70.28;100387.72;4953066;29;1303;-68
2021/08/06 03:07:23;;;;;;;;;;;;;;;25.86;70.47;100388.16;4952741;28;1973;-68
2021/08/06 03:09:50;;;;;;;;;;;;;;;25.91;69.74;100380.56;4953197;29;1233;-67
2021/08/06 03:12:17;;;;;;;;;;;;;;;25.92;69.96;100380.41;4952801;28;1409;-68
2021/08/06 03:14:43;;;;;;;;;;;;;;;25.94;69.89;100385.59;4953058;28;1371;-68
2021/08/06 03:17:10;;;;;;;;;;;;;;;25.90;70.12;100394.91;4953942;28;838;-65
2021/08/06 03:19:37;;;;;;;;;;;;;;;25.85;70.52;100387.28;4937115;29;1360;-68
2021/08/06 03:22:04;;;;;;;;;;;;;;;25.91;69.75;100391.22;4953115;28;867;-68
2021/08/06 03:24:31;;;;;;;;;;;;;;;25.91;69.99;100397.41;4953103;29;1363;-68
2021/08/06 03:26:57;;;;;;;;;;;;;;;25.86;70.32;100394.34;4919605;29;1981;-68
2021/08/06 03:29:24;;;;;;;;;;;;;;;25.88;69.94;100391.50;4953013;29;1085;-68
2021/08/06 03:31:51;;;;;;;;;;;;;;;25.85;70.36;100399.78;4952940;29;1312;-69
2021/08/06 03:34:17;;;;;;;;;;;;;;;25.91;69.96;100402.75;4935543;29;933;-68
2021/08/06 03:36:44;;;;;;;;;;;;;;;25.86;70.21;100393.47;4952700;28;1242;-68
2021/08/06 03:39:11;;;;;;;;;;;;;;;25.86;70.01;100393.47;4952402;29;1113;-67
2021/08/06 03:41:38;;;;;;;;;;;;;;;25.84;70.45;100400.78;4952520;29;1167;-66
2021/08/06 03:44:04;;;;;;;;;;;;;;;25.88;69.81;100400.34;4935217;29;1100;-67
2021/08/06 03:46:31;;;;;;;;;;;;;;;25.89;70.29;100401.22;4952832;28;1216;-67
2021/08/06 03:48:58;;;;;;;;;;;;;;;25.92;69.49;100407.09;4935279;29;1912;-68
2021/08/06 03:51:24;;;;;;;;;;;;;;;25.85;68.98;100413.97;4951963;29;1307;-67
2021/08/06 03:53:51;;;;;;;;;;;;;;;25.83;69.44;100410.63;4951958;29;1109;-68
2021/08/06 03:56:17;;;;;;;;;;;;;;;25.90;69.89;100421.56;4952595;28;1277;-68
2021/08/06 03:58:44;;;;;;;;;;;;;;;25.89;69.21;100430.56;4952270;28;1088;-68
2021/08/06 04:01:11;;;;;;;;;;;;;;;25.88;69.57;100423.53;4952594;28;1355;-67
2021/08/06 04:03:38;;;;;;;;;;;;;;;25.83;70.35;100429.28;4952502;29;784;-68
2021/08/06 04:06:04;;;;;;;;;;;;;;;25.81;70.03;100425.06;4934763;29;1258;-67
2021/08/06 04:08:31;;;;;;;;;;;;;;;25.86;69.64;100425.50;4951967;29;1972;-68
2021/08/06 04:10:59;;;;;;;;;;;;;;;25.87;68.92;100427.19;4951708;29;1287;-68
2021/08/06 04:13:25;;;;;;;;;;;;;;;25.86;68.57;100433.50;4951593;28;1269;-68
2021/08/06 04:15:52;;;;;;;;;;;;;;;25.79;69.81;100425.22;4952196;28;1194;-66
2021/08/06 04:18:18;;;;;;;;;;;;;;;25.80;69.02;100437.59;4952068;29;981;-68
2021/08/06 04:20:45;;;;;;;;;;;;;;;25.83;69.19;100436.44;4952318;29;1323;-69
2021/08/06 04:23:12;;;;;;;;;;;;;;;25.82;69.96;100442.75;4952048;28;844;-67
2021/08/06 04:25:38;;;;;;;;;;;;;;;25.82;69.56;100440.09;4951767;29;1301;-67
2021/08/06 04:28:07;;;;;;;;;;;;;;;25.83;68.67;100444.47;4951396;28;1898;-67
2021/08/06 04:30:34;;;;;;;;;;;;;;;25.83;68.88;100429.28;4951803;29;1375;-68
2021/08/06 04:33:00;;;;;;;;;;;;;;;25.85;69.33;100437.16;4951707;29;773;-68
2021/08/06 04:35:27;;;;;;;;;;;;;;;25.79;68.78;100430.56;4951775;28;1277;-68
2021/08/06 04:37:54;;;;;;;;;;;;;;;25.84;69.39;100443.50;4951556;28;1018;-68
2021/08/06 04:40:21;;;;;;;;;;;;;;;25.84;69.54;100444.31;4934292;29;1270;-66
2021/08/06 04:42:48;;;;;;;;;;;;;;;25.79;69.62;100440.38;4951730;29;1088;-66
2021/08/06 04:45:14;;;;;;;;;;;;;;;25.77;69.60;100440.53;4951857;29;1269;-67
2021/08/06 04:47:45;;;;;;;;;;;;;;;25.79;69.00;100440.38;4951798;28;1910;-68
2021/08/06 04:50:13;;;;;;;;;;;;;;;25.81;68.16;100443.72;4934350;29;1283;-68
2021/08/06 04:52:40;;;;;;;;;;;;;;;25.82;68.61;100438.28;4934213;29;1084;-67
2021/08/06 04:55:07;;;;;;;;;;;;;;;25.81;69.18;100441.06;4951062;28;1258;-68
2021/08/06 04:57:34;;;;;;;;;;;;;;;25.79;68.31;100435.88;4951516;29;720;-68
2021/08/06 05:00:01;;;;;;;;;;;;;;;25.83;68.83;100441.78;4951661;28;1295;-68
2021/08/06 05:02:28;;;;;;;;;;;;;;;25.84;68.70;100438.16;4951565;28;1022;-68
2021/08/06 05:04:55;;;;;;;;;;;;;;;25.81;68.43;100439.25;4933705;29;1360;-69
2021/08/06 05:07:21;;;;;;;;;;;;;;;25.79;67.81;100437.72;4950635;29;1910;-68
2021/08/06 05:09:49;;;;;;;;;;;;;;;25.77;68.81;100442.34;4950965;28;1250;-69
2021/08/06 05:12:16;;;;;;;;;;;;;;;25.77;68.53;100442.34;4950882;28;1211;-68
2021/08/06 05:14:43;;;;;;;;;;;;;;;25.81;68.69;100449.06;4933804;29;1273;-68
2021/08/06 05:17:10;;;;;;;;;;;;;;;25.81;68.86;100443.72;4951015;29;925;-68
2021/08/06 05:19:36;;;;;;;;;;;;;;;25.80;68.30;100442.06;4953370;28;1531;-68
2021/08/06 05:22:03;;;;;;;;;;;;;;;25.79;68.08;100445.72;4962358;28;1508;-68
2021/08/06 05:24:30;;;;;;;;;;;;;;;25.81;68.43;100451.75;4933097;29;1255;-68
2021/08/06 05:26:57;;;;;;;;;;;;;;;25.77;68.65;100458.34;4950858;28;823;-67
2021/08/06 05:29:23;;;;;;;;;;;;;;;25.74;67.88;100453.31;4950896;29;1981;-68
2021/08/06 05:31:50;;;;;;;;;;;;;;;25.73;68.20;100451.59;4950708;29;1277;-67
2021/08/06 05:34:17;;;;;;;;;;;;;;;25.78;67.76;100452.88;4950770;28;1078;-67
2021/08/06 05:36:44;;;;;;;;;;;;;;;25.76;67.27;100459.31;4950288;28;1225;-68
2021/08/06 05:39:10;;;;;;;;;;;;;;;25.76;68.15;100456.66;4949510;28;1037;-69
2021/08/06 05:41:37;;;;;;;;;;;;;;;25.79;68.04;100451.91;4932871;29;1285;-68
2021/08/06 05:44:04;;;;;;;;;;;;;;;25.76;67.67;100457.50;4951057;29;968;-68
2021/08/06 05:46:31;;;;;;;;;;;;;;;25.78;67.54;100452.03;4950769;29;1288;-68
2021/08/06 05:48:57;;;;;;;;;;;;;;;25.80;67.31;100455.41;4933395;29;1988;-69
2021/08/06 05:51:24;;;;;;;;;;;;;;;25.74;67.40;100443.47;4950307;28;1778;-68
2021/08/06 05:53:51;;;;;;;;;;;;;;;25.74;67.57;100450.63;4950123;29;835;-65
2021/08/06 05:56:17;;;;;;;;;;;;;;;25.71;67.55;100448.25;4950599;29;1320;-68
2021/08/06 05:58:44;;;;;;;;;;;;;;;25.71;67.52;100456.25;4949390;29;823;-71
2021/08/06 06:01:11;;;;;;;;;;;;;;;25.72;67.84;100455.25;4950226;29;1285;-70
2021/08/06 06:03:38;;;;;;;;;;;;;;;25.73;67.89;100451.59;4933389;29;1092;-70
2021/08/06 06:06:04;;;;;;;;;;;;;;;25.76;67.59;100452.16;4950420;28;1383;-69
2021/08/06 06:08:31;;;;;;;;;;;;;;;25.74;67.82;100453.31;4932595;29;1954;-70
2021/08/06 06:10:58;;;;;;;;;;;;;;;25.77;67.76;100459.22;4949252;28;1467;-69
2021/08/06 06:13:26;;;;;;;;;;;;;;;25.71;67.97;100458.91;4949463;28;1152;-69
2021/08/06 06:15:53;;;;;;;;;;;;;;;25.72;66.79;100458.75;4949805;28;1351;-70
2021/08/06 06:18:19;;;;;;;;;;;;;;;25.77;67.37;100463.69;4949576;29;1082;-69
2021/08/06 06:20:46;;;;;;;;;;;;;;;25.77;68.09;100466.34;4960323;28;1415;-74
2021/08/06 06:23:13;;;;;;;;;;;;;;;25.72;68.00;100471.25;4931551;29;987;-74
2021/08/06 06:25:40;;;;;;;;;;;;;;;25.75;68.21;100468.31;4931789;29;1350;-75
2021/08/06 06:28:07;;;;;;;;;;;;;;;25.76;67.83;100468.19;4931701;29;2005;-73
2021/08/06 06:30:34;;;;;;;;;;;;;;;25.77;67.61;100471.69;4931683;29;1296;-71
2021/08/06 06:33:01;;;;;;;;;;;;;;;25.79;67.90;100475.91;4949260;28;848;-72
2021/08/06 06:35:29;;;;;;;;;;;;;;;25.78;67.84;100476.03;4932704;29;1221;-73
2021/08/06 06:37:55;;;;;;;;;;;;;;;25.77;67.76;100480.56;4952932;28;1231;-71
2021/08/06 06:40:25;;;;;;;;;;;;;;;25.77;67.69;100471.69;4952909;28;1265;-72
2021/08/06 06:42:52;;;;;;;;;;;;;;;25.81;68.00;100478.41;4935173;29;1144;-71
2021/08/06 06:45:21;;;;;;;;;;;;;;;25.74;68.13;100483.50;4952600;29;1261;-74
2021/08/06 06:47:49;;;;;;;;;;;;;;;25.76;68.20;100488.69;4934965;29;1985;-70
2021/08/06 06:50:18;;;;;;;;;;;;;;;25.79;67.82;100485.72;4952537;28;1265;-71
2021/08/06 06:52:46;;;;;;;;;;;;;;;25.79;67.64;100485.72;4952795;28;1038;-69
2021/08/06 06:55:13;;;;;;;;;;;;;;;25.80;67.52;100490.09;4952577;29;1234;-76
2021/08/06 06:57:52;;;;;;;;;;;;;;;25.78;67.94;100492.03;4919212;29;800;-76
2021/08/06 07:00:20;;;;;;;;;;;;;;;25.78;67.70;100497.38;4963727;28;1551;-70
2021/08/06 07:02:47;;;;;;;;;;;;;;;25.75;67.42;100503.00;4952288;29;1317;-72
2021/08/06 07:05:15;;;;;;;;;;;;;;;25.73;67.70;100495.13;4952640;28;1288;-74
2021/08/06 07:07:41;;;;;;;;;;;;;;;25.76;67.01;100504.69;4934793;29;1112;-71
2021/08/06 07:10:08;;;;;;;;;;;;;;;25.78;66.71;100500.03;4951243;28;1914;-73
2021/08/06 07:12:36;;;;;;;;;;;;;;;25.74;67.10;100502.16;4934443;29;1360;-74
2021/08/06 07:15:04;;;;;;;;;;;;;;;25.73;66.63;100500.47;4952267;29;1340;-73
2021/08/06 07:17:32;;;;;;;;;;;;;;;25.71;65.77;100496.25;4952112;28;808;-75
2021/08/06 07:19:59;;;;;;;;;;;;;;;25.74;66.71;100498.66;4935119;29;1214;-74
2021/08/06 07:22:26;;;;;;;;;;;;;;;25.73;66.68;100508.47;4952488;29;844;-72
2021/08/06 07:24:53;;;;;;;;;;;;;;;25.74;66.76;100507.50;4952147;28;1391;-74
2021/08/06 07:27:20;;;;;;;;;;;;;;;25.79;66.39;100507.91;4935206;29;1320;-73
2021/08/06 07:29:47;;;;;;;;;;;;;;;25.78;66.78;100514.22;4974359;28;1914;-74
2021/08/06 07:32:14;;;;;;;;;;;;;;;25.78;66.42;100513.38;4938163;28;1130;-73
2021/08/06 07:34:40;;;;;;;;;;;;;;;25.76;66.29;100502.88;4990014;28;1277;-71
2021/08/06 07:37:07;;;;;;;;;;;;;;;25.77;66.37;100509.03;4977336;28;1542;-74
2021/08/06 07:39:34;;;;;;;;;;;;;;;25.74;66.49;100502.16;4969514;28;1236;-74
2021/08/06 07:42:01;;;;;;;;;;;;;;;25.75;66.19;100506.50;4979921;28;1092;-72
2021/08/06 07:44:27;;;;;;;;;;;;;;;25.77;66.34;100514.38;4987836;28;1189;-72
2021/08/06 07:46:54;;;;;;;;;;;;;;;25.82;66.36;100514.81;4990086;28;956;-71
2021/08/06 07:49:21;;;;;;;;;;;;;;;25.77;65.94;100523.25;4980629;28;1902;-73
2021/08/06 07:51:48;;;;;;;;;;;;;;;25.76;66.03;100526.88;4970896;28;1325;-77
2021/08/06 07:54:14;;;;;;;;;;;;;;;25.74;65.30;100523.50;4987021;28;1219;-74
2021/08/06 07:56:41;;;;;;;;;;;;;;;25.72;65.34;100521.94;4991757;28;1332;-75
2021/08/06 07:59:08;;;;;;;;;;;;;;;25.73;65.27;100526.31;4991053;28;1056;-75
2021/08/06 08:01:34;;;;;;;;;;;;;;;25.77;65.30;100525.91;4975485;28;1181;-68
2021/08/06 08:04:04;;;;;;;;;;;;;;;25.82;65.03;100529.00;4971214;28;1033;-69
2021/08/06 08:06:31;;;;;;;;;;;;;;;25.88;63.99;100530.25;4969849;28;1431;-75
2021/08/06 08:08:58;;;;;;;;;;;;;;;25.82;64.45;100528.16;4947681;28;1910;-71
2021/08/06 08:11:24;;;;;;;;;;;;;;;25.82;64.07;100531.66;4973785;28;1492;-72
2021/08/06 08:13:51;;;;;;;;;;;;;;;25.75;64.27;100535.00;4974117;28;1283;-71
2021/08/06 08:16:18;;;;;;;;;;;;;;;25.75;64.15;100529.66;4971299;28;1495;-74
2021/08/06 08:18:44;;;;;;;;;;;;;;;25.73;64.12;100527.16;4943884;28;1500;-74
2021/08/06 08:21:18;;;;;;;;;;;;;;;25.69;64.38;100536.41;4939099;28;1489;-69
2021/08/06 08:23:45;;;;;;;;;;;;;;;25.71;64.19;100536.28;4957577;28;1090;-69
2021/08/06 08:26:12;;;;;;;;;;;;;;;25.78;63.39;100532.06;4973081;28;1366;-69
2021/08/06 08:28:42;;;;;;;;;;;;;;;25.76;62.91;100536.69;4957704;28;1985;-69
2021/08/06 08:31:08;;;;;;;;;;;;;;;25.71;63.79;100545.13;4971932;28;1281;-67
2021/08/06 08:33:35;;;;;;;;;;;;;;;25.70;63.96;100540.75;4973538;28;1156;-68
2021/08/06 08:36:02;;;;;;;;;;;;;;;25.81;63.49;100539.78;4987366;28;1535;-68
2021/08/06 08:38:29;;;;;;;;;;;;;;;25.82;62.90;100536.16;4957226;28;1460;-67
2021/08/06 08:40:56;;;;;;;;;;;;;;;25.77;63.34;100533.06;4953708;28;1261;-68
2021/08/06 08:43:24;;;;;;;;;;;;;;;25.70;63.57;100537.25;4969439;28;1199;-65
2021/08/06 08:45:51;;;;;;;;;;;;;;;25.69;63.58;100540.88;4974996;28;1281;-67
2021/08/06 08:48:19;;;;;;;;;;;;;;;25.68;63.46;100550.75;4972960;28;1613;-66
2021/08/06 08:50:47;;;;;;;;;;;;;;;25.75;62.60;100556.34;4972837;28;1253;-68
2021/08/06 08:53:13;;;;;;;;;;;;;;;25.74;63.11;100555.53;4990512;28;779;-68
2021/08/06 08:55:40;;;;;;;;;;;;;;;25.76;62.56;100558.88;4972527;28;1292;-67
2021/08/06 08:58:07;;;;;;;;;;;;;;;25.71;62.82;100566.47;4969511;28;1139;-67
2021/08/06 09:00:34;;;;;;;;;;;;;;;25.74;62.45;100563.53;4970985;28;1305;-69
2021/08/06 09:03:01;;;;;;;;;;;;;;;25.72;62.92;100569.94;4970154;28;1190;-67
2021/08/06 09:05:28;;;;;;;;;;;;;;;25.74;62.93;100573.34;4971564;28;1309;-69
2021/08/06 09:07:58;;;;;;;;;;;;;;;25.74;62.57;100568.88;4953417;28;1384;-70
2021/08/06 09:10:27;;;;;;;;;;;;;;;25.72;62.60;100568.13;4970568;28;1922;-67
2021/08/06 09:12:57;;;;;;;;;;;;;;;25.71;62.67;100565.63;4954288;28;1266;-67
2021/08/06 09:15:44;;;;;;;;;;;;;;;25.72;61.72;100568.13;4949686;28;1393;-68
2021/08/06 09:18:27;;;;;;;;;;;;;;;25.74;61.45;100568.00;4951861;28;1216;-68
2021/08/06 09:20:56;;;;;;;;;;;;;;;25.69;61.89;100568.41;4953892;28;1398;-68
2021/08/06 09:23:40;;;;;;;;;;;;;;;25.71;61.79;100560.28;4970164;28;1266;-66
2021/08/06 09:26:26;;;;;;;;;;;;;;;25.72;61.58;100580.63;4967708;28;1307;-68
2021/08/06 09:29:04;;;;;;;;;;;;;;;25.68;61.73;100571.22;4948069;28;1911;-66
2021/08/06 09:31:36;;;;;;;;;;;;;;;25.69;61.32;100567.56;4968174;28;1371;-65
2021/08/06 09:34:35;;;;;;;;;;;;;;;25.68;61.89;100566.75;4967792;28;1278;-65
2021/08/06 09:37:08;;;;;;;;;;;;;;;25.68;61.76;100560.56;4956291;28;1264;-67
2021/08/06 09:39:40;;;;;;;;;;;;;;;25.69;61.56;100563.06;4947636;28;1367;-68
2021/08/06 09:42:39;;;;;;;;;;;;;;;25.69;61.45;100562.22;4968780;28;1208;-67
2021/08/06 09:45:07;;;;;;;;;;;;;;;25.65;61.58;100572.34;4968181;28;1246;-67
2021/08/06 09:47:36;;;;;;;;;;;;;;;25.72;60.38;100572.63;4966421;28;1289;-67
2021/08/06 09:50:11;;;;;;;;;;;;;;;25.70;59.94;100578.09;4968288;28;2004;-67
2021/08/06 09:52:41;;;;;;;;;;;;;;;25.70;60.31;100578.09;4966848;28;1153;-67
2021/08/06 09:55:19;;;;;;;;;;;;;;;25.69;60.14;100576.41;4932892;28;1252;-68
2021/08/06 09:57:51;;;;;;;;;;;;;;;25.67;59.67;100585.53;4933652;28;1138;-66
2021/08/06 10:00:20;;;;;;;;;;;;;;;25.66;59.69;100574.00;4967323;28;1398;-64
2021/08/06 10:02:48;;;;;;;;;;;;;;;25.68;59.52;100571.22;4964770;28;1220;-66
2021/08/06 10:05:20;;;;;;;;;;;;;;;25.69;59.20;100565.75;4968034;28;1285;-67
2021/08/06 10:07:51;;;;;;;;;;;;;;;25.71;59.07;100570.94;4967366;28;1243;-68
2021/08/06 10:10:18;;;;;;;;;;;;;;;25.73;58.89;100563.66;4966578;28;1977;-66
2021/08/06 10:12:45;;;;;;;;;;;;;;;25.76;58.97;100558.88;4966530;28;1742;-68
2021/08/06 10:15:13;;;;;;;;;;;;;;;25.76;58.47;100550.03;4966785;28;1325;-68
2021/08/06 10:17:39;;;;;;;;;;;;;;;25.68;58.63;100531.22;4968137;28;1037;-67
2021/08/06 10:20:08;;;;;;;;;;;;;;;25.70;58.50;100547.91;4951619;28;1356;-67
2021/08/06 10:22:35;;;;;;;;;;;;;;;25.76;58.48;100542.03;4969112;28;1030;-67
2021/08/06 10:25:04;;;;;;;;;;;;;;;25.78;57.86;100540.91;4951583;28;1319;-67
2021/08/06 10:27:31;;;;;;;;;;;;;;;25.75;58.21;100553.69;4967543;28;1037;-67
2021/08/06 10:29:59;;;;;;;;;;;;;;;25.79;57.82;100557.78;4950511;28;1914;-69
2021/08/06 10:32:27;;;;;;;;;;;;;;;25.72;57.21;100549.47;4968489;28;1227;-68
2021/08/06 10:35:04;;;;;;;;;;;;;;;25.70;57.32;100569.25;4968522;28;1305;-69
2021/08/06 10:37:49;;;;;;;;;;;;;;;25.70;57.00;100558.59;4966742;28;1077;-68
2021/08/06 10:40:31;;;;;;;;;;;;;;;25.70;57.26;100553.25;4966375;28;1406;-70
2021/08/06 10:43:10;;;;;;;;;;;;;;;25.75;56.85;100556.34;4948554;28;1646;-68
2021/08/06 10:45:51;;;;;;;;;;;;;;;25.75;56.91;100556.34;4967209;28;1416;-67
2021/08/06 10:48:34;;;;;;;;;;;;;;;25.78;56.43;100550.72;4966134;28;1250;-66
2021/08/06 10:51:16;;;;;;;;;;;;;;;25.75;56.53;100553.69;4966359;28;1915;-70
2021/08/06 10:53:56;;;;;;;;;;;;;;;25.77;56.11;100547.25;4949239;28;1233;-67
2021/08/06 10:56:30;;;;;;;;;;;;;;;25.76;56.61;100539.38;4966272;28;1366;-66
2021/08/06 10:59:12;;;;;;;;;;;;;;;25.78;56.38;100551.59;4966149;28;1331;-67
2021/08/06 11:01:48;;;;;;;;;;;;;;;25.79;56.24;100547.09;4949172;28;1442;-68
2021/08/06 11:04:15;;;;;;;;;;;;;;;25.80;56.55;100535.44;4964340;28;1212;-67
2021/08/06 11:06:50;;;;;;;;;;;;;;;25.79;56.70;100541.75;4965946;28;1372;-68
2021/08/06 11:09:26;;;;;;;;;;;;;;;25.77;56.86;100530.38;4964879;28;1966;-68
2021/08/06 11:11:56;;;;;;;;;;;;;;;25.83;56.45;100532.50;4964951;28;1279;-68
2021/08/06 11:14:29;;;;;;;;;;;;;;;25.84;57.01;100531.53;4944334;28;1617;-68
2021/08/06 11:17:03;;;;;;;;;;;;;;;25.88;57.78;100530.25;4948755;28;1243;-69
2021/08/06 11:19:44;;;;;;;;;;;;;;;25.91;58.32;100527.31;4964688;28;1305;-67
2021/08/06 11:22:21;;;;;;;;;;;;;;;25.93;58.46;100525.38;4966342;28;1239;-68
2021/08/06 11:24:49;;;;;;;;;;;;;;;25.95;59.05;100526.06;4971503;28;1348;-68
2021/08/06 11:27:16;;;;;;;;;;;;;;;25.97;58.78;100519.59;4970375;28;1124;-70
2021/08/06 11:29:43;;;;;;;;;;;;;;;25.96;58.85;100522.41;4969232;28;1910;-66
2021/08/06 11:32:13;;;;;;;;;;;;;;;25.94;58.61;100509.19;4967768;28;1200;-70
2021/08/06 11:34:59;;;;;;;;;;;;;;;25.96;58.26;100509.06;4968451;28;1317;-68
2021/08/06 11:37:27;;;;;;;;;;;;;;;26.02;58.39;100512.00;4971548;28;1348;-69
2021/08/06 11:40:02;;;;;;;;;;;;;;;26.04;58.69;100509.22;4972439;28;1304;-68
2021/08/06 11:42:29;;;;;;;;;;;;;;;26.13;58.42;100515.53;4971743;28;1309;-69
2021/08/06 11:44:58;;;;;;;;;;;;;;;26.07;57.97;100517.78;4980977;28;1388;-72
2021/08/06 11:47:34;;;;;;;;;;;;;;;26.09;58.23;100517.63;4963328;28;1311;-69
2021/08/06 11:50:01;;;;;;;;;;;;;;;26.08;58.39;100516.78;4978785;28;1895;-68
2021/08/06 11:52:48;;;;;;;;;;;;;;;26.08;58.07;100507.97;4978719;28;1342;-68
2021/08/06 11:55:17;;;;;;;;;;;;;;;26.07;57.94;100509.78;4977348;28;1373;-66
2021/08/06 11:57:46;;;;;;;;;;;;;;;26.06;57.11;100497.41;4980515;28;1290;-67
2021/08/06 12:00:14;;;;;;;;;;;;;;;26.06;57.36;100492.06;4981592;28;1354;-73
2021/08/06 12:02:40;;;;;;;;;;;;;;;26.08;57.47;100502.63;4980717;28;1393;-68
2021/08/06 12:05:23;;;;;;;;;;;;;;;26.08;57.79;100499.97;4979691;28;1349;-68
2021/08/06 12:07:50;;;;;;;;;;;;;;;26.09;57.69;100485.59;4981053;28;1275;-68
2021/08/06 12:10:17;;;;;;;;;;;;;;;26.13;57.17;100487.03;4980585;28;1914;-70
2021/08/06 12:12:47;;;;;;;;;;;;;;;26.13;57.22;100481.69;4963593;28;1577;-70
2021/08/06 12:15:24;;;;;;;;;;;;;;;26.15;56.82;100481.53;4959252;28;1765;-70
2021/08/06 12:18:10;;;;;;;;;;;;;;;26.17;57.06;100472.44;4976305;28;1353;-69
2021/08/06 12:20:37;;;;;;;;;;;;;;;26.23;57.49;100466.53;4968174;28;1253;-72
2021/08/06 12:23:04;;;;;;;;;;;;;;;26.21;58.13;100476.50;4979348;28;1425;-69
2021/08/06 12:25:32;;;;;;;;;;;;;;;26.18;57.61;100467.91;4961512;28;1464;-70
2021/08/06 12:28:00;;;;;;;;;;;;;;;26.23;57.54;100463.03;4978679;28;1357;-73
2021/08/06 12:30:28;;;;;;;;;;;;;;;26.20;56.45;100458.81;4959161;28;1984;-70
2021/08/06 12:32:55;;;;;;;;;;;;;;;26.20;56.24;100449.97;4974822;28;1303;-67
2021/08/06 12:35:26;;;;;;;;;;;;;;;26.19;55.82;100449.09;4977099;28;1377;-74
2021/08/06 12:37:53;;;;;;;;;;;;;;;26.20;56.63;100449.97;4960216;28;1287;-73
2021/08/06 12:40:21;;;;;;;;;;;;;;;26.17;56.21;100453.75;4938767;28;1343;-69
2021/08/06 12:42:48;;;;;;;;;;;;;;;26.23;56.19;100450.53;4959933;28;1338;-71
2021/08/06 12:45:17;;;;;;;;;;;;;;;26.24;55.30;100446.84;4975119;28;1283;-66
2021/08/06 12:47:45;;;;;;;;;;;;;;;26.24;55.12;100441.50;4961113;28;1378;-67
2021/08/06 12:50:13;;;;;;;;;;;;;;;26.21;55.51;100432.94;4979550;28;1986;-68
2021/08/06 12:52:42;;;;;;;;;;;;;;;26.23;56.03;100422.97;4979260;28;1318;-72
2021/08/06 12:55:13;;;;;;;;;;;;;;;26.33;56.09;100429.13;4979696;28;1404;-68
2021/08/06 12:57:42;;;;;;;;;;;;;;;26.43;56.11;100419.25;4976205;28;1279;-73